SLRI/RIB METAR and TAF weather

Enter ICAO airport designator
Station Type Date Time Source
SLRI METAR 2022/11/25 23:00 UTC NOAA

SLRI 252300Z 00000KT 9999 FEW015 FEW020CB BKN200 28/24 Q1009


Station Type Date Time Source
SLRI Decoded METAR 2022/11/25 23:00 UTC NOAA

Riberalta, Bolivia (SLRI) 11-00S 066-07W
Nov 25, 2022 - 06:00 PM EST / 2022.11.25 2300 UTC
Wind: Calm:0
Visibility: greater than 7 mile(s):0
Sky conditions: mostly cloudy
Weather: Cumulonimbus clouds observed
Temperature: 82 F (28 C)
Dew Point: 75 F (24 C)
Relative Humidity: 78%
Pressure (altimeter): 29.80 in. Hg (1009 hPa)
ob: SLRI 252300Z 00000KT 9999 FEW015 FEW020CB BKN200 28/24 Q1009
cycle: 23

Station Type Date Time Source
SLRI TAF 2015/11/18 00:29 UTC NOAA

TAF SLRI 182200Z 1900/1924 00000KT 9999 FEW015 TX37/1919Z TN23/1910Z
BECMG 1912/1914 33011KT SCT020
TEMPO 1919/1922 8000 VCSH FEW020 FEW023CB BKN080

Example: see airport list